Time;durP1;ratioP1;P1;durP2;ratioP2;P2;SDS_P1;SDS_P2;PMS_P1;PMS_P2;Temp;Humidity;BMP_temperature;BMP_pressure;BME280_temperature;BME280_humidity;BME280_pressure;Samples;Min_cycle;Max_cycle;Signal;HPM_P1;HPM_P2
2022/04/03 04:01:03;;;;;;;1.70;1.03;;;-4.40;96.30;;;;;;5644924;23;20617;-77
2022/04/03 04:03:28;;;;;;;5.17;1.80;;;-4.40;96.30;;;;;;4978659;28;20423;-77
2022/04/03 04:05:54;;;;;;;6.17;2.13;;;-4.40;96.30;;;;;;4996008;28;20401;-76
2022/04/03 04:08:19;;;;;;;3.10;1.30;;;-4.50;96.30;;;;;;4995532;28;20510;-77
2022/04/03 04:10:45;;;;;;;4.90;2.10;;;-4.60;96.30;;;;;;4996046;28;20217;-77
2022/04/03 04:13:10;;;;;;;2.90;1.80;;;-4.70;96.30;;;;;;4995802;28;20182;-77
2022/04/03 04:15:36;;;;;;;1.50;1.37;;;-4.80;96.30;;;;;;4996393;28;20166;-78
2022/04/03 04:18:01;;;;;;;4.40;1.83;;;-4.90;96.30;;;;;;4994894;28;20169;-77
2022/04/03 04:23:03;;;;;;;1.97;1.77;;;-5.00;96.30;;;;;;5204786;23;20230;-78
2022/04/03 04:25:28;;;;;;;3.33;1.53;;;-5.00;96.30;;;;;;4956458;29;20785;-77
2022/04/03 04:27:54;;;;;;;7.83;1.67;;;-4.90;96.30;;;;;;4956111;28;20485;-78
2022/04/03 04:30:20;;;;;;;4.13;1.70;;;-5.00;96.30;;;;;;4956427;29;20658;-77
2022/04/03 04:32:45;;;;;;;3.77;1.70;;;-5.10;96.30;;;;;;4956231;29;20160;-77
2022/04/03 04:35:13;;;;;;;6.70;1.90;;;-5.00;96.30;;;;;;4956654;29;20182;-78
2022/04/03 04:37:38;;;;;;;2.40;1.90;;;-4.90;96.30;;;;;;4938562;29;20266;-77
2022/04/03 04:40:05;;;;;;;3.30;1.93;;;-4.90;96.30;;;;;;4939220;29;20457;-76
2022/04/03 04:42:30;;;;;;;2.90;1.60;;;-4.90;96.30;;;;;;4956062;29;20191;-77
2022/04/03 04:44:56;;;;;;;3.00;1.97;;;-4.80;96.30;;;;;;4938700;29;20437;-77
2022/04/03 04:47:21;;;;;;;5.67;2.37;;;-4.80;96.30;;;;;;4939223;29;20663;-77
2022/04/03 04:49:47;;;;;;;2.30;2.10;;;-4.90;96.30;;;;;;4938585;29;20178;-77
2022/04/03 04:52:12;;;;;;;3.40;2.00;;;-5.00;96.30;;;;;;4938597;28;20222;-77
2022/04/03 04:54:38;;;;;;;3.73;2.13;;;-5.00;96.30;;;;;;4956080;29;20182;-79
2022/04/03 04:57:04;;;;;;;5.10;2.40;;;-5.00;96.30;;;;;;4938788;29;20273;-77
2022/04/03 04:59:29;;;;;;;2.27;1.70;;;-4.90;96.30;;;;;;4938053;29;20230;-78
2022/04/03 05:01:56;;;;;;;3.60;2.13;;;-4.90;96.30;;;;;;4955924;29;20225;-78
2022/04/03 05:04:23;;;;;;;2.60;1.77;;;-4.90;96.30;;;;;;4955617;28;20171;-77
2022/04/03 05:06:49;;;;;;;3.33;1.40;;;-4.90;96.30;;;;;;4938115;29;20422;-76
2022/04/03 05:09:15;;;;;;;3.63;1.97;;;-4.70;96.30;;;;;;4955336;29;20411;-77
2022/04/03 05:11:41;;;;;;;2.53;1.60;;;-4.70;96.30;;;;;;4955629;29;20468;-78
2022/04/03 05:14:06;;;;;;;3.67;2.10;;;-4.70;96.30;;;;;;4955819;28;20636;-78
2022/04/03 05:16:32;;;;;;;4.47;2.10;;;-4.60;96.30;;;;;;4955645;28;20457;-78
2022/04/03 05:18:58;;;;;;;2.40;1.47;;;-4.60;96.30;;;;;;4955002;28;20171;-77
2022/04/03 05:21:23;;;;;;;3.90;1.90;;;-4.50;96.30;;;;;;4938001;28;20207;-77
2022/04/03 05:23:49;;;;;;;2.73;1.80;;;-4.40;96.30;;;;;;4955579;29;20488;-78
2022/04/03 05:26:17;;;;;;;3.90;1.80;;;-4.20;96.30;;;;;;4955512;29;20179;-78
2022/04/03 05:28:43;;;;;;;4.93;1.50;;;-3.90;96.30;;;;;;4937561;29;20265;-77
2022/04/03 05:31:08;;;;;;;7.03;2.10;;;-3.40;96.30;;;;;;4937980;29;20470;-78
2022/04/03 05:33:35;;;;;;;2.93;2.03;;;-2.80;96.30;;;;;;4955417;29;20522;-78
2022/04/03 05:36:00;;;;;;;4.37;2.30;;;-1.80;96.30;;;;;;4938270;28;20186;-78
2022/04/03 05:38:26;;;;;;;5.73;2.30;;;-1.10;96.30;;;;;;4955356;29;20423;-78
2022/04/03 05:40:51;;;;;;;2.60;1.77;;;-0.30;96.30;;;;;;4955872;29;20250;-79
2022/04/03 05:43:17;;;;;;;2.20;1.57;;;0.30;96.30;;;;;;4956454;28;20720;-79
2022/04/03 05:45:42;;;;;;;2.47;1.53;;;1.30;96.30;;;;;;4939238;29;20186;-79
2022/04/03 05:48:08;;;;;;;6.57;2.00;;;2.40;96.30;;;;;;4956159;29;20175;-78
2022/04/03 05:50:35;;;;;;;7.57;1.30;;;3.10;96.30;;;;;;4953141;29;20710;-79
2022/04/03 05:53:01;;;;;;;3.70;1.67;;;3.40;96.30;;;;;;4940136;29;20550;-80
2022/04/03 05:55:26;;;;;;;6.33;1.57;;;3.40;96.30;;;;;;4940058;29;20419;-80
2022/04/03 05:57:53;;;;;;;4.20;1.60;;;2.80;96.30;;;;;;4955002;29;20183;-79
2022/04/03 06:00:22;;;;;;;1.97;1.27;;;3.50;96.30;;;;;;4937983;29;20216;-79
2022/04/03 06:02:59;;;;;;;2.53;1.30;;;3.70;96.30;;;;;;4955412;29;20419;-79
2022/04/03 06:05:26;;;;;;;2.50;0.97;;;4.20;96.30;;;;;;4937772;29;21039;-79
2022/04/03 06:07:52;;;;;;;2.60;1.67;;;4.50;95.60;;;;;;4944827;29;20451;-80
2022/04/03 06:10:20;;;;;;;3.87;1.57;;;5.50;92.60;;;;;;4923478;29;20939;-79
2022/04/03 06:12:56;;;;;;;4.20;1.20;;;5.70;92.10;;;;;;4949426;29;20235;-80
2022/04/03 06:15:22;;;;;;;3.60;1.57;;;6.70;88.60;;;;;;4951240;29;20422;-78
2022/04/03 06:17:49;;;;;;;3.20;1.30;;;6.40;88.40;;;;;;4934946;29;20423;-77
2022/04/03 06:20:14;;;;;;;3.90;1.70;;;5.90;88.20;;;;;;4935060;29;20843;-76
2022/04/03 06:22:40;;;;;;;1.50;1.37;;;5.80;89.60;;;;;;4953017;28;20525;-77
2022/04/03 06:25:07;;;;;;;5.17;1.60;;;6.30;87.90;;;;;;4966407;28;20202;-77
2022/04/03 06:27:32;;;;;;;6.53;1.70;;;7.00;87.80;;;;;;4953404;28;20214;-77
2022/04/03 06:29:58;;;;;;;1.93;1.50;;;7.30;85.10;;;;;;4973035;28;20457;-75
2022/04/03 06:32:23;;;;;;;3.00;1.63;;;6.80;85.60;;;;;;4973761;28;20202;-77
2022/04/03 06:34:49;;;;;;;3.93;1.47;;;6.00;87.80;;;;;;4956595;28;20726;-76
2022/04/03 06:37:14;;;;;;;3.20;1.40;;;6.50;88.00;;;;;;4974060;28;20214;-76
2022/04/03 06:39:40;;;;;;;2.10;1.30;;;6.10;88.10;;;;;;4973137;28;20182;-78
2022/04/03 06:42:06;;;;;;;2.40;1.60;;;6.50;86.10;;;;;;4973523;28;20206;-77
2022/04/03 06:44:31;;;;;;;3.33;1.90;;;6.80;87.80;;;;;;4973571;28;20205;-77
2022/04/03 06:46:57;;;;;;;2.53;1.33;;;6.90;85.90;;;;;;4956430;28;20214;-77
2022/04/03 06:49:22;;;;;;;1.97;1.40;;;7.20;85.10;;;;;;4973399;28;20179;-79
2022/04/03 06:51:48;;;;;;;4.30;1.33;;;7.20;83.50;;;;;;4973666;28;20202;-77
2022/04/03 06:54:13;;;;;;;34.67;28.30;;;7.20;82.20;;;;;;4974474;28;20738;-78
2022/04/03 06:56:39;;;;;;;29.97;26.27;;;7.10;82.10;;;;;;4973995;28;20201;-77
2022/04/03 06:59:04;;;;;;;3.00;2.07;;;6.60;83.40;;;;;;4973741;28;20196;-81
2022/04/03 07:01:30;;;;;;;2.13;1.73;;;5.70;85.20;;;;;;4974085;28;20705;-77
2022/04/03 07:03:55;;;;;;;3.80;3.13;;;5.10;88.00;;;;;;4974525;28;20189;-78
2022/04/03 07:06:21;;;;;;;4.90;1.87;;;3.90;90.40;;;;;;4974037;28;20185;-77
2022/04/03 07:08:48;;;;;;;5.10;1.80;;;2.80;94.30;;;;;;4956309;28;20177;-80
2022/04/03 07:11:15;;;;;;;2.03;1.40;;;2.50;96.30;;;;;;4956492;28;20705;-77
2022/04/03 07:13:40;;;;;;;5.90;1.63;;;2.20;96.30;;;;;;4956748;28;20417;-77
2022/04/03 07:16:06;;;;;;;1.77;1.40;;;2.00;96.30;;;;;;4957230;28;20420;-77
2022/04/03 07:18:31;;;;;;;1.67;1.23;;;2.40;96.30;;;;;;4956071;28;20174;-79
2022/04/03 07:20:57;;;;;;;2.70;1.40;;;2.20;96.30;;;;;;4974048;28;20234;-76
2022/04/03 07:23:25;;;;;;;3.00;1.60;;;2.80;96.30;;;;;;4974164;28;20186;-76
2022/04/03 07:25:50;;;;;;;4.30;1.90;;;2.80;96.30;;;;;;4974039;28;20535;-77
2022/04/03 07:28:15;;;;;;;6.10;1.70;;;2.40;96.30;;;;;;4973365;28;20414;-77
2022/04/03 07:30:42;;;;;;;3.30;1.73;;;2.30;96.30;;;;;;4959746;28;20250;-77
2022/04/03 07:33:07;;;;;;;2.50;1.37;;;2.30;96.30;;;;;;4977764;28;20170;-77
2022/04/03 07:35:33;;;;;;;1.97;1.43;;;2.30;96.30;;;;;;4978419;28;20413;-76
2022/04/03 07:37:58;;;;;;;1.50;1.23;;;2.80;96.30;;;;;;4977789;28;20305;-78
2022/04/03 07:40:24;;;;;;;6.60;1.70;;;3.60;96.30;;;;;;4978681;28;20205;-80
2022/04/03 07:42:51;;;;;;;2.30;1.60;;;2.70;96.30;;;;;;4977908;28;20170;-76
2022/04/03 07:45:17;;;;;;;2.27;1.40;;;2.10;96.30;;;;;;4960968;28;20179;-76
2022/04/03 07:47:50;;;;;;;5.80;1.20;;;1.60;96.30;;;;;;4977557;28;20414;-78
2022/04/03 07:50:18;;;;;;;3.30;1.70;;;1.50;96.30;;;;;;4960640;28;20178;-76
2022/04/03 07:52:45;;;;;;;4.00;1.57;;;1.70;96.30;;;;;;4961188;28;20432;-78
2022/04/03 07:55:10;;;;;;;2.60;1.40;;;1.80;96.30;;;;;;4960730;28;20786;-80
2022/04/03 07:57:40;;;;;;;3.10;1.80;;;1.60;96.30;;;;;;4977604;28;20429;-76
2022/04/03 08:00:07;;;;;;;1.67;1.30;;;3.00;96.30;;;;;;4960110;28;20224;-77
2022/04/03 08:02:37;;;;;;;2.40;1.37;;;4.10;96.30;;;;;;4951764;28;21032;-78
2022/04/03 08:05:03;;;;;;;1.30;1.13;;;5.20;92.60;;;;;;4964651;28;20922;-80
2022/04/03 08:07:44;;;;;;;4.37;1.47;;;6.00;91.00;;;;;;4962962;28;20476;-79
2022/04/03 08:10:12;;;;;;;2.53;1.40;;;6.00;89.70;;;;;;4977638;28;20394;-78
2022/04/03 08:12:40;;;;;;;2.47;1.63;;;5.10;90.70;;;;;;4960196;28;20468;-76
2022/04/03 08:15:07;;;;;;;1.87;1.10;;;6.10;93.20;;;;;;4977183;28;20464;-78
2022/04/03 08:17:34;;;;;;;2.37;1.20;;;7.60;85.40;;;;;;4959274;28;20791;-77
2022/04/03 08:20:00;;;;;;;2.23;1.47;;;8.10;81.30;;;;;;4977116;28;20493;-78
2022/04/03 08:22:26;;;;;;;3.47;1.20;;;7.40;81.40;;;;;;4977077;28;20457;-77
2022/04/03 08:24:51;;;;;;;2.23;1.40;;;6.10;85.50;;;;;;4976821;28;20432;-79
2022/04/03 08:27:17;;;;;;;2.40;1.30;;;4.90;90.40;;;;;;4977380;28;20189;-76
2022/04/03 08:29:43;;;;;;;2.13;1.27;;;3.90;90.60;;;;;;4959508;28;20256;-75
2022/04/03 08:32:09;;;;;;;5.10;1.47;;;2.80;95.40;;;;;;4976814;28;20949;-75
2022/04/03 08:34:34;;;;;;;1.90;1.30;;;2.10;96.30;;;;;;4977008;28;20413;-75
2022/04/03 08:37:01;;;;;;;2.23;1.47;;;1.80;96.30;;;;;;4976560;28;20181;-76
2022/04/03 08:39:26;;;;;;;1.80;1.43;;;2.10;96.30;;;;;;4976481;28;20638;-76
2022/04/03 08:41:53;;;;;;;1.77;1.57;;;2.60;96.30;;;;;;4974203;28;20449;-76
2022/04/03 08:44:19;;;;;;;1.90;1.23;;;3.80;96.30;;;;;;4959083;28;20655;-76
2022/04/03 08:46:48;;;;;;;4.27;1.57;;;5.90;96.20;;;;;;4974921;28;20516;-78
2022/04/03 08:49:16;;;;;;;2.07;1.30;;;6.00;87.40;;;;;;4976037;28;20509;-76
2022/04/03 08:51:42;;;;;;;2.33;1.20;;;5.60;83.30;;;;;;4975959;28;20450;-75
2022/04/03 08:54:09;;;;;;;6.97;1.07;;;5.20;87.30;;;;;;4959207;28;20934;-75
2022/04/03 08:56:35;;;;;;;2.30;1.47;;;4.50;86.50;;;;;;4976000;28;20414;-77
2022/04/03 08:59:00;;;;;;;5.40;1.60;;;3.90;89.30;;;;;;4975758;28;20460;-78
2022/04/03 09:01:26;;;;;;;2.07;1.30;;;3.00;90.50;;;;;;4964838;28;20207;-77
2022/04/03 09:03:51;;;;;;;2.27;1.10;;;2.10;94.90;;;;;;4956351;29;20181;-78
2022/04/03 09:06:21;;;;;;;1.33;1.00;;;1.40;96.10;;;;;;4938824;29;20175;-77
2022/04/03 09:08:48;;;;;;;3.67;1.50;;;1.00;96.30;;;;;;4955979;29;20583;-77
2022/04/03 09:11:15;;;;;;;3.83;1.70;;;1.10;96.30;;;;;;4955956;29;20454;-77
2022/04/03 09:13:42;;;;;;;2.73;1.60;;;1.00;96.30;;;;;;4956250;28;20427;-77
2022/04/03 09:16:09;;;;;;;4.03;1.33;;;0.70;96.30;;;;;;4938875;29;20414;-77
2022/04/03 09:18:47;;;;;;;1.20;1.03;;;0.60;96.30;;;;;;4955818;29;20461;-77
2022/04/03 09:21:23;;;;;;;1.90;1.40;;;0.60;96.30;;;;;;4955925;29;20485;-76
2022/04/03 09:24:12;;;;;;;1.10;1.00;;;0.50;96.30;;;;;;4940344;28;20407;-76
2022/04/03 09:26:39;;;;;;;5.50;1.00;;;0.20;95.00;;;;;;4975192;28;20875;-77
2022/04/03 09:29:06;;;;;;;1.40;0.83;;;0.20;96.30;;;;;;4973854;28;20418;-77
2022/04/03 09:31:32;;;;;;;1.50;0.90;;;0.20;94.10;;;;;;4950250;28;20550;-77
2022/04/03 09:34:02;;;;;;;2.00;1.10;;;0.20;93.50;;;;;;4962419;28;20507;-79
2022/04/03 09:36:32;;;;;;;2.27;1.10;;;0.30;95.50;;;;;;4958404;28;20520;-79
2022/04/03 09:39:26;;;;;;;1.37;0.80;;;0.40;96.30;;;;;;4960315;28;20969;-79
2022/04/03 09:42:04;;;;;;;1.60;1.13;;;0.30;95.40;;;;;;4972647;28;20441;-80
2022/04/03 09:44:32;;;;;;;4.10;1.07;;;0.30;96.30;;;;;;4952341;28;20450;-81
2022/04/03 09:47:22;;;;;;;1.00;0.67;;;0.40;96.00;;;;;;4974749;28;20417;-76
2022/04/03 09:49:54;;;;;;;1.10;0.70;;;0.40;93.50;;;;;;4955516;28;20975;-76
2022/04/03 09:52:39;;;;;;;1.37;0.97;;;0.40;90.80;;;;;;4937577;29;20485;-76
2022/04/03 09:55:24;;;;;;;1.10;0.70;;;0.50;88.60;;;;;;4938159;29;20414;-78
2022/04/03 09:58:09;;;;;;;1.10;0.90;;;0.50;88.90;;;;;;4955114;29;20449;-76
2022/04/03 10:00:41;;;;;;;0.90;0.70;;;0.70;91.60;;;;;;4955011;29;20426;-76
2022/04/03 10:03:12;;;;;;;10.77;1.00;;;0.80;92.00;;;;;;4955297;29;20406;-76
2022/04/03 10:05:38;;;;;;;1.83;0.83;;;0.70;89.90;;;;;;4938009;29;20419;-76
2022/04/03 10:08:05;;;;;;;1.30;0.90;;;0.70;89.10;;;;;;4955433;29;20917;-76
2022/04/03 10:10:33;;;;;;;1.43;0.97;;;0.60;86.40;;;;;;4937746;29;20585;-77
2022/04/03 10:12:59;;;;;;;1.10;0.90;;;0.60;85.60;;;;;;4956693;28;20415;-75
2022/04/03 10:15:26;;;;;;;2.20;1.00;;;0.80;87.40;;;;;;4966784;28;20414;-76
2022/04/03 10:17:52;;;;;;;1.10;0.97;;;0.90;88.20;;;;;;4955553;28;20502;-75
2022/04/03 10:20:18;;;;;;;1.40;1.00;;;1.30;89.30;;;;;;4974025;28;20405;-75
2022/04/03 10:22:49;;;;;;;1.43;1.00;;;1.50;88.90;;;;;;4974216;28;20516;-77
2022/04/03 10:25:22;;;;;;;1.20;1.03;;;1.90;89.70;;;;;;4956797;28;20273;-76
2022/04/03 10:27:50;;;;;;;1.57;0.80;;;2.00;87.60;;;;;;4973445;28;20433;-77
2022/04/03 10:30:17;;;;;;;3.30;0.93;;;2.10;86.50;;;;;;4973902;28;20417;-76
2022/04/03 10:32:56;;;;;;;1.27;0.90;;;2.10;88.60;;;;;;4956552;28;20457;-76
2022/04/03 10:35:22;;;;;;;1.00;0.73;;;2.20;90.70;;;;;;4958346;28;20414;-76
2022/04/03 10:38:04;;;;;;;5.37;1.30;;;1.90;87.90;;;;;;4936664;29;20430;-74
2022/04/03 13:11:32;;;;;;;5.93;1.80;;;3.10;92.50;;;;;;4962529;28;20489;-79
2022/04/03 13:14:23;;;;;;;3.00;2.07;;;3.30;90.40;;;;;;4957387;28;20410;-76
2022/04/03 13:16:57;;;;;;;2.10;1.90;;;2.80;88.90;;;;;;4957554;28;20418;-75
2022/04/03 13:19:24;;;;;;;2.33;2.00;;;2.60;90.70;;;;;;4974432;28;20473;-74
2022/04/03 13:21:51;;;;;;;1.73;1.63;;;2.60;90.40;;;;;;4974431;28;20429;-79
2022/04/03 13:24:16;;;;;;;2.93;1.90;;;2.30;91.60;;;;;;4973059;28;20418;-74
2022/04/03 13:26:42;;;;;;;2.13;1.80;;;2.10;89.70;;;;;;4974163;28;20472;-77
2022/04/03 13:29:09;;;;;;;3.13;2.10;;;2.00;90.70;;;;;;4956643;28;20233;-80
2022/04/03 13:31:35;;;;;;;2.00;1.40;;;2.00;91.10;;;;;;4974177;28;20210;-76
2022/04/03 13:34:02;;;;;;;2.00;1.80;;;1.90;92.00;;;;;;4956864;28;20500;-75
2022/04/03 13:36:28;;;;;;;2.27;2.07;;;2.80;94.90;;;;;;4974084;28;20410;-78
2022/04/03 13:38:55;;;;;;;1.53;1.43;;;3.40;91.50;;;;;;4956051;28;20957;-75
2022/04/03 13:41:20;;;;;;;2.97;1.80;;;3.80;85.50;;;;;;4974202;28;20662;-77
2022/04/03 13:43:46;;;;;;;1.53;1.43;;;3.80;90.80;;;;;;4956805;28;20467;-75
2022/04/03 13:46:11;;;;;;;2.07;1.90;;;4.10;91.80;;;;;;4973893;28;20182;-75
2022/04/03 13:48:37;;;;;;;2.67;2.30;;;4.60;83.00;;;;;;4973364;28;20174;-75
2022/04/03 13:51:06;;;;;;;3.07;2.20;;;4.60;85.90;;;;;;4973835;28;20274;-75
2022/04/03 13:53:32;;;;;;;1.97;1.77;;;4.40;83.80;;;;;;4956769;28;20182;-76
2022/04/03 13:55:59;;;;;;;5.13;3.23;;;4.60;85.20;;;;;;4956574;28;20787;-75
2022/04/03 13:58:26;;;;;;;2.30;2.10;;;4.10;86.00;;;;;;4973274;28;20177;-76
2022/04/03 14:00:58;;;;;;;2.27;2.00;;;3.70;86.80;;;;;;4973255;28;20430;-76
2022/04/03 14:03:25;;;;;;;2.00;1.80;;;3.70;87.00;;;;;;4974012;28;20789;-75
2022/04/03 14:05:51;;;;;;;10.30;2.20;;;3.70;89.30;;;;;;4956302;28;20422;-77
2022/04/03 14:08:17;;;;;;;2.60;2.03;;;3.70;87.70;;;;;;4972994;28;20474;-76
2022/04/03 14:10:44;;;;;;;2.40;2.17;;;4.20;91.40;;;;;;4938962;28;989659;-79
2022/04/03 14:13:10;;;;;;;2.37;2.17;;;4.40;89.10;;;;;;4974432;28;20175;-75
2022/04/03 14:15:37;;;;;;;2.30;1.80;;;4.30;89.40;;;;;;4974345;28;20781;-76
2022/04/03 14:18:03;;;;;;;3.60;2.70;;;4.10;87.20;;;;;;4956333;28;20812;-75
2022/04/03 14:20:29;;;;;;;1.87;1.70;;;4.10;90.70;;;;;;4974209;28;20418;-76
2022/04/03 14:22:55;;;;;;;3.33;2.50;;;3.90;87.30;;;;;;4974184;28;20181;-76
2022/04/03 14:25:20;;;;;;;9.33;2.00;;;3.70;88.90;;;;;;4974197;28;20413;-76
2022/04/03 14:27:46;;;;;;;3.07;1.83;;;3.40;88.30;;;;;;4973619;28;20190;-77
2022/04/03 14:30:12;;;;;;;5.63;2.20;;;3.20;89.00;;;;;;4974036;28;20577;-76
2022/04/03 14:32:40;;;;;;;3.00;1.97;;;3.30;88.80;;;;;;4956774;28;20194;-75
2022/04/03 14:35:06;;;;;;;5.83;2.17;;;3.60;89.10;;;;;;4956987;28;20226;-76
2022/04/03 14:37:31;;;;;;;5.03;1.80;;;3.70;87.80;;;;;;4973788;28;20472;-76
2022/04/03 14:39:57;;;;;;;3.23;2.10;;;3.30;89.50;;;;;;4973373;28;20422;-76
2022/04/03 14:42:22;;;;;;;2.50;2.27;;;2.70;90.50;;;;;;4973987;28;20265;-76
2022/04/03 14:44:48;;;;;;;4.10;2.00;;;2.50;92.40;;;;;;4974002;28;20170;-79
2022/04/03 14:47:14;;;;;;;5.97;2.10;;;2.40;90.70;;;;;;4956555;28;20757;-76
2022/04/03 14:49:39;;;;;;;8.40;2.70;;;2.50;91.20;;;;;;4973061;28;20175;-76
2022/04/03 14:52:06;;;;;;;2.63;2.17;;;2.70;94.50;;;;;;4973522;28;20500;-76
2022/04/03 14:54:31;;;;;;;3.80;2.17;;;2.90;93.70;;;;;;4973966;28;20537;-76
2022/04/03 14:56:57;;;;;;;2.23;2.03;;;2.90;93.20;;;;;;4956377;28;20414;-76
2022/04/03 14:59:24;;;;;;;3.93;2.40;;;3.00;90.90;;;;;;4971588;28;20635;-77
2022/04/03 15:01:52;;;;;;;2.20;2.00;;;3.10;91.20;;;;;;4940753;28;20445;-77
2022/04/03 15:04:18;;;;;;;7.20;1.97;;;3.00;90.90;;;;;;4937132;29;20474;-76
2022/04/03 15:06:44;;;;;;;3.33;2.27;;;3.50;92.90;;;;;;4936860;29;20450;-76
2022/04/03 15:09:10;;;;;;;2.87;2.20;;;4.20;87.80;;;;;;4953750;29;20179;-76
2022/04/03 15:11:36;;;;;;;3.30;2.37;;;4.30;87.00;;;;;;4954198;28;20454;-77
2022/04/03 15:14:01;;;;;;;2.40;2.00;;;4.10;87.80;;;;;;4954324;29;20198;-78
2022/04/03 15:16:27;;;;;;;3.10;2.00;;;4.20;87.40;;;;;;4937058;29;20254;-76
2022/04/03 15:18:52;;;;;;;2.83;2.63;;;4.30;87.90;;;;;;4936426;29;20174;-75
2022/04/03 15:21:18;;;;;;;2.20;2.00;;;4.30;89.40;;;;;;4954161;28;20667;-77
2022/04/03 15:23:43;;;;;;;2.50;2.30;;;4.40;85.70;;;;;;4954436;29;20175;-75
2022/04/03 15:26:10;;;;;;;2.20;2.00;;;4.60;88.30;;;;;;4936764;29;20179;-74
2022/04/03 15:28:39;;;;;;;3.27;2.40;;;4.40;87.50;;;;;;4953390;29;20178;-75
2022/04/03 15:31:05;;;;;;;2.53;2.33;;;4.30;89.40;;;;;;4953718;28;20477;-74
2022/04/03 15:33:31;;;;;;;3.23;2.77;;;4.10;87.00;;;;;;4963795;28;20897;-75
2022/04/03 15:35:57;;;;;;;2.27;2.07;;;4.00;89.80;;;;;;4973302;28;20178;-75
2022/04/03 15:38:23;;;;;;;2.43;2.23;;;3.80;89.00;;;;;;4967434;28;20428;-76
2022/04/03 15:40:49;;;;;;;4.77;3.00;;;3.40;89.20;;;;;;4958849;28;20446;-75
2022/04/03 15:43:15;;;;;;;2.50;2.30;;;2.90;91.70;;;;;;4953600;29;20421;-77
2022/04/03 15:45:40;;;;;;;6.77;2.77;;;3.00;91.10;;;;;;4964028;28;20201;-79
2022/04/03 15:48:06;;;;;;;4.70;2.30;;;3.10;91.70;;;;;;4971101;28;20422;-75
2022/04/03 15:50:32;;;;;;;3.50;3.20;;;3.40;91.00;;;;;;4973789;28;21458;-75
2022/04/03 15:52:57;;;;;;;7.40;4.73;;;3.60;88.90;;;;;;4964214;28;20199;-75
2022/04/03 15:55:23;;;;;;;94.73;45.77;;;3.60;87.80;;;;;;4957312;29;20177;-76
2022/04/03 15:57:49;;;;;;;3.27;3.00;;;3.20;88.10;;;;;;4956844;29;20167;-74
2022/04/03 16:00:15;;;;;;;2.30;2.07;;;3.30;89.10;;;;;;4960838;28;20666;-76
2022/04/03 16:02:41;;;;;;;2.47;2.27;;;3.40;91.80;;;;;;4976459;28;20414;-76
2022/04/03 16:05:08;;;;;;;3.23;2.50;;;3.30;87.80;;;;;;4976149;28;20929;-79
2022/04/03 16:07:39;;;;;;;4.30;3.00;;;3.00;93.00;;;;;;4975841;28;20174;-79
2022/04/03 16:10:25;;;;;;;5.90;2.93;;;2.60;91.20;;;;;;4958577;28;20438;-78
2022/04/03 16:12:55;;;;;;;4.60;2.50;;;2.50;91.80;;;;;;4957214;29;21020;-79
2022/04/03 16:15:20;;;;;;;4.73;2.93;;;2.60;91.80;;;;;;4957181;29;20446;-78
2022/04/03 16:17:46;;;;;;;3.80;2.60;;;2.80;92.90;;;;;;4958513;28;20465;-78
2022/04/03 16:20:13;;;;;;;5.23;2.20;;;2.90;91.40;;;;;;4963553;28;20327;-79
2022/04/03 16:22:39;;;;;;;6.37;3.00;;;2.90;91.50;;;;;;4941417;29;20990;-79
2022/04/03 16:25:05;;;;;;;3.70;2.53;;;2.90;92.70;;;;;;4940740;29;20446;-83
2022/04/03 16:27:31;;;;;;;2.83;2.10;;;3.30;91.50;;;;;;4960076;28;20179;-82
2022/04/03 16:29:56;;;;;;;5.23;2.33;;;3.00;89.10;;;;;;4969661;28;20980;-80
2022/04/03 16:32:22;;;;;;;2.50;2.10;;;2.70;90.20;;;;;;4950735;28;20202;-80
2022/04/03 16:34:48;;;;;;;1.90;1.80;;;2.60;91.90;;;;;;4946972;29;20230;-80
2022/04/03 16:37:13;;;;;;;2.30;1.97;;;2.70;92.90;;;;;;4967738;28;20502;-81
2022/04/03 16:39:39;;;;;;;2.47;2.17;;;2.70;92.50;;;;;;4951644;28;20188;-80
2022/04/03 16:42:04;;;;;;;2.07;1.50;;;2.70;93.80;;;;;;4967530;28;20205;-79
2022/04/03 16:44:30;;;;;;;2.27;1.87;;;2.70;91.80;;;;;;4971934;28;20213;-81
2022/04/03 16:46:56;;;;;;;6.30;2.23;;;2.80;93.70;;;;;;4951612;28;20190;-80
2022/04/03 16:49:22;;;;;;;4.03;1.73;;;2.80;93.40;;;;;;4939651;29;20493;-79
2022/04/03 16:51:47;;;;;;;1.77;1.67;;;2.70;90.40;;;;;;4959221;28;20202;-80
2022/04/03 16:54:14;;;;;;;2.57;1.80;;;2.40;93.30;;;;;;4976779;28;20258;-80
2022/04/03 16:56:40;;;;;;;2.53;1.90;;;2.10;95.00;;;;;;4959336;28;20177;-79
2022/04/03 16:59:07;;;;;;;2.60;1.83;;;1.90;96.30;;;;;;4959190;28;20509;-80
2022/04/03 17:01:33;;;;;;;2.47;1.50;;;1.80;94.10;;;;;;4976490;28;20925;-81
2022/04/03 17:03:59;;;;;;;3.43;2.03;;;1.70;96.30;;;;;;4977247;28;20421;-80
2022/04/03 17:06:25;;;;;;;4.00;2.20;;;1.70;95.80;;;;;;4961223;28;20541;-81
2022/04/03 17:08:52;;;;;;;6.50;2.43;;;1.50;96.30;;;;;;4960453;28;20635;-80
2022/04/03 17:11:17;;;;;;;2.03;1.63;;;1.40;96.30;;;;;;4962178;28;20210;-79
2022/04/03 17:13:44;;;;;;;3.37;2.27;;;1.30;96.30;;;;;;4962436;28;20565;-80
2022/04/03 17:16:10;;;;;;;3.53;2.33;;;1.30;95.60;;;;;;4960976;28;20210;-79
2022/04/03 17:18:36;;;;;;;3.73;3.33;;;1.30;96.30;;;;;;4958821;28;20421;-76
2022/04/03 17:21:06;;;;;;;2.50;1.73;;;1.20;96.30;;;;;;4958017;28;20300;-76
2022/04/03 17:23:31;;;;;;;2.50;1.80;;;1.20;96.30;;;;;;4975298;28;20422;-77
2022/04/03 17:25:57;;;;;;;1.53;1.43;;;1.10;96.30;;;;;;4957826;28;20500;-77
2022/04/03 17:28:28;;;;;;;2.60;1.73;;;0.90;96.30;;;;;;4973293;28;20186;-77
2022/04/03 17:30:59;;;;;;;2.60;1.90;;;0.80;96.30;;;;;;4974989;28;20200;-77
2022/04/03 17:33:24;;;;;;;2.20;1.80;;;0.70;96.30;;;;;;4957960;28;20826;-78
2022/04/03 17:35:50;;;;;;;3.00;2.00;;;0.70;96.30;;;;;;4975002;28;20418;-76
2022/04/03 17:38:16;;;;;;;3.63;2.27;;;0.50;96.30;;;;;;4973021;28;20657;-76
2022/04/03 17:40:41;;;;;;;2.63;2.00;;;0.40;96.30;;;;;;4957145;28;20206;-77
2022/04/03 17:43:07;;;;;;;6.13;2.77;;;0.30;96.30;;;;;;4959237;28;20253;-77
2022/04/03 17:45:34;;;;;;;3.27;2.20;;;0.20;96.30;;;;;;4940822;28;20182;-77
2022/04/03 17:48:00;;;;;;;2.47;2.00;;;0.10;96.30;;;;;;4968132;28;20402;-76
2022/04/03 17:50:26;;;;;;;2.73;2.17;;;0.00;96.30;;;;;;4958543;28;20421;-77
2022/04/03 17:52:52;;;;;;;2.67;2.17;;;0.00;96.30;;;;;;4972002;28;20450;-78
2022/04/03 17:55:18;;;;;;;2.00;1.67;;;-0.20;96.30;;;;;;4966339;28;20670;-76
2022/04/03 17:57:43;;;;;;;4.23;2.50;;;-0.20;96.30;;;;;;4973923;28;20170;-78
2022/04/03 18:00:10;;;;;;;3.30;2.27;;;-0.20;96.30;;;;;;4974445;28;20425;-78
2022/04/03 18:02:36;;;;;;;4.10;2.30;;;-0.30;96.30;;;;;;4974212;28;20202;-75
2022/04/03 18:05:03;;;;;;;4.37;2.50;;;-0.30;96.30;;;;;;4956931;28;20418;-76
2022/04/03 18:07:28;;;;;;;2.90;2.47;;;-0.40;96.30;;;;;;4956404;28;20179;-75
2022/04/03 18:09:54;;;;;;;3.43;2.50;;;-0.40;96.30;;;;;;4956528;28;20509;-75
2022/04/03 18:12:21;;;;;;;7.63;2.93;;;-0.40;96.30;;;;;;4973866;28;20681;-77
2022/04/03 18:14:48;;;;;;;5.57;2.10;;;-0.40;96.30;;;;;;4972764;28;20653;-75
2022/04/03 18:17:14;;;;;;;5.00;2.53;;;-0.30;96.30;;;;;;4974004;28;20406;-76
2022/04/03 18:19:39;;;;;;;4.80;2.53;;;-0.20;96.30;;;;;;4955667;28;20417;-79
2022/04/03 18:22:05;;;;;;;2.73;2.47;;;-0.10;96.30;;;;;;4957593;28;20533;-75
2022/04/03 18:24:31;;;;;;;2.60;1.90;;;-0.10;96.30;;;;;;4978255;28;20612;-76
2022/04/03 18:26:58;;;;;;;3.73;2.40;;;0.00;96.30;;;;;;4960632;28;20198;-76
2022/04/03 18:29:25;;;;;;;2.50;1.80;;;0.00;96.30;;;;;;4956793;28;20453;-75
2022/04/03 18:34:26;;;;;;;2.63;2.10;;;-0.10;96.30;;;;;;5960941;23;20739;-76
2022/04/03 18:36:52;;;;;;;3.40;2.47;;;-0.10;96.30;;;;;;5012585;28;20957;-75
2022/04/03 18:39:17;;;;;;;7.77;2.60;;;-0.10;96.30;;;;;;4995145;28;20671;-75
2022/04/03 18:41:43;;;;;;;3.77;2.90;;;0.00;96.30;;;;;;5012893;28;20462;-76
2022/04/03 18:44:10;;;;;;;5.33;2.60;;;0.00;96.30;;;;;;5012953;28;20548;-78
2022/04/03 18:46:35;;;;;;;5.33;2.27;;;-0.10;96.30;;;;;;5013141;28;20173;-75
2022/04/03 18:49:01;;;;;;;3.30;2.27;;;-0.10;96.30;;;;;;5012494;28;20419;-77
2022/04/03 18:51:26;;;;;;;4.60;2.60;;;0.00;96.30;;;;;;5012744;28;20571;-75
2022/04/03 18:53:52;;;;;;;2.30;2.10;;;0.10;96.30;;;;;;4995222;28;20168;-75
2022/04/03 18:56:19;;;;;;;2.10;1.90;;;0.10;96.30;;;;;;5012654;28;20187;-75
2022/04/03 18:58:45;;;;;;;10.60;2.10;;;0.10;96.30;;;;;;5012496;28;20612;-75
2022/04/03 19:01:11;;;;;;;3.20;2.17;;;0.20;96.30;;;;;;5012510;28;20483;-75
2022/04/03 19:03:37;;;;;;;4.57;3.60;;;0.30;96.30;;;;;;4995015;28;20443;-75
2022/04/03 19:06:02;;;;;;;2.63;2.07;;;0.30;96.30;;;;;;5012641;28;20448;-75
2022/04/03 19:08:28;;;;;;;4.53;2.90;;;0.30;96.30;;;;;;5012291;28;20177;-76
2022/04/03 19:10:53;;;;;;;2.97;2.37;;;0.40;96.30;;;;;;5012536;28;20200;-77
2022/04/03 19:13:19;;;;;;;2.40;1.97;;;0.30;96.30;;;;;;5012490;28;20780;-75
2022/04/03 19:15:45;;;;;;;2.23;1.90;;;0.30;96.30;;;;;;5012595;28;20179;-75
2022/04/03 19:18:11;;;;;;;3.03;2.43;;;0.30;96.30;;;;;;4994828;28;20176;-75
2022/04/03 19:20:37;;;;;;;2.40;2.20;;;0.30;96.30;;;;;;5012361;28;20446;-75
2022/04/03 19:23:02;;;;;;;2.20;2.00;;;0.30;96.30;;;;;;4994711;28;21245;-76
2022/04/03 19:25:28;;;;;;;3.20;2.27;;;0.30;96.30;;;;;;5014626;28;20176;-77
2022/04/03 19:27:54;;;;;;;4.13;2.90;;;0.30;96.30;;;;;;5001086;28;20655;-76
2022/04/03 19:30:20;;;;;;;2.90;2.13;;;0.20;96.30;;;;;;5019031;28;20261;-75